Weather observations for the past three days for
Scottsdale Airport
Metric (Imperial)
Date Time (mst) Wind (kph) Vis. (km) Weather Sky Cond. Temperature (ºC) Relative Humidity Wind Chill (°C) Heat Index (°C) Pressure Precipitation (cm)
Air Dwpt 6 hour altimeter (cm) sea level (mb) 1 hr 3 hr 6 hr
Max. Min.
03 15:53 Vrbl 6 16.09 A Few Clouds FEW085 37.2 14.4 26% 37 75.74 1006.6
03 14:53 SW 15 16.09 Fair CLR 36.7 15 27% 37 75.79 1007.3
03 13:53 Vrbl 7 G 30 16.09 Fair CLR 36.1 14.4 27% 36 75.87 1008.4
03 12:53 Vrbl 9 16.09 Fair CLR 35.6 14.4 28% 35 75.92 1009.1
03 11:53 S 13 16.09 Fair CLR 34.4 16.1 33% 35 76 1010.0
03 10:53 E 11 16.09 Fair CLR 33.3 18.3 33.3 28.3 41% 34 76.05 1010.9
03 09:53 NE 9 16.09 Fair CLR 32.2 18.3 44% 33 76.07 1011.2
03 08:53 Vrbl 6 16.09 A Few Clouds FEW065 31.1 18.9 48% 32 76.07 1011.4
03 07:53 Vrbl 7 16.09 Fair CLR 30 18.9 51% 31 76.1 1011.6
03 06:53 Calm 16.09 Fair CLR 28.9 18.3 53% 30 76.05 1011.0
03 05:53 SW 6 16.09 A Few Clouds FEW110 28.9 18.9 55% 30 76.02 1010.4
03 04:53 Calm 16.09 Fair CLR 29.4 17.8 33.3 28.9 50% 30 75.97 1009.8
03 03:53 W 15 16.09 Fair CLR 30 17.8 48% 31 75.95 1009.6
03 02:53 W 7 16.09 Fair CLR 30 11.7 32% 29 75.97 1009.7
03 01:53 Calm 16.09 Fair CLR 30.6 10.6 29% 29 75.95 1009.4
03 00:53 Calm 16.09 Fair CLR 31.7 9.4 25% 30 75.95 1009.4
02 23:53 Calm 16.09 Fair CLR 32.8 12.2 28% 32 75.92 1009.2
02 22:53 Calm 16.09 Fair CLR 33.3 14.4 37.8 33.3 32% 33 75.92 1009.2
02 21:53 Calm 16.09 Fair CLR 34.4 12.8 27% 33 75.92 1009.1
02 20:53 W 7 16.09 Fair CLR 35.6 12.8 25% 35 75.9 1008.9
02 19:53 W 9 16.09 Fair CLR 35.6 13.3 26% 35 75.87 1008.5
02 18:53 W 11 16.09 Fair CLR 36.1 12.8 24% 35 75.84 1008.1
02 17:53 SW 11 16.09 Fair CLR 36.7 13.3 24% 36 75.82 1008.0
02 16:53 W 15 16.09 Fair CLR 37.2 13.9 38.3 33.9 25% 37 75.84 1008.1
02 15:53 W 13 G 30 16.09 Fair CLR 37.8 13.9 24% 37 75.9 1008.8
02 14:53 Vrbl 7 16.09 A Few Clouds FEW095 37.2 13.9 25% 37 75.95 1009.5
02 13:53 W 15 16.09 Fair CLR 37.2 13.9 25% 37 76 1010.1
02 12:53 Vrbl 9 16.09 Fair CLR 36.1 15.6 29% 36 76.07 1011.1
02 11:53 Vrbl 9 16.09 Fair CLR 35 17.2 35% 36 76.15 1012.1
02 10:53 SW 9 16.09 Fair CLR 33.9 18.3 33.9 27.8 40% 35 76.17 1012.7
02 09:53 Vrbl 9 16.09 Fair CLR 32.8 18.9 44% 34 76.2 1012.9
02 08:53 SE 9 16.09 Fair CLR 31.1 18.9 48% 32 76.2 1013.0
02 07:53 SE 9 16.09 Fair CLR 30 18.9 51% 31 76.17 1012.6
02 06:53 Calm 16.09 A Few Clouds FEW075 28.3 19.4 59% 30 76.12 1012.0
02 05:53 SW 6 16.09 Fair CLR 28.3 19.4 59% 30 76.07 1011.4
02 04:53 Calm 16.09 Fair CLR 28.9 18.9 32.2 28.9 55% 30 76.05 1011.0
02 03:53 Calm 16.09 Fair CLR 30 18.3 49% 31 76.05 1010.9
02 02:53 SE 6 14.48 Fair CLR 30.6 18.3 48% 32 76.05 1010.8
02 01:53 E 7 16.09 Fair CLR 30.6 18.3 48% 32 76.05 1010.9
02 00:53 Calm 16.09 Fair CLR 31.1 17.8 45% 32 76.05 1010.9
01 23:53 E 6 16.09 Fair CLR 31.7 17.2 42% 32 76 1010.3
01 22:53 Calm 16.09 Fair CLR 31.7 17.2 36.7 31.7 42% 32 76.02 1010.4
01 21:53 Calm 16.09 Fair CLR 32.8 17.2 39% 33 76.02 1010.5
01 20:53 SE 6 16.09 Fair CLR 33.3 17.2 38% 34 75.97 1009.9
01 19:53 Calm 16.09 Fair CLR 34.4 16.7 35% 35 75.9 1009.0
01 18:53 Calm 16.09 Fair CLR 35 16.1 32% 35 75.87 1008.7
01 17:53 S 7 16.09 Fair CLR 35.6 16.1 31% 36 75.9 1008.9
01 16:53 Calm 16.09 Fair CLR 36.1 16.7 36.7 31.1 32% 37 75.92 1009.2
01 15:53 W 6 16.09 Fair CLR 35.6 17.2 34% 36 75.95 1009.9
01 14:53 SE 11 16.09 Fair CLR 35.6 17.8 35% 37 76 1010.4
01 13:53 Vrbl 6 16.09 Fair CLR 34.4 17.8 37% 35 76.07 1011.4
01 12:53 S 7 16.09 Fair CLR 33.9 17.8 38% 35 76.12 1012.2
01 11:53 Calm 16.09 Fair CLR 32.8 17.8 41% 34 76.2 1013.1
01 10:53 Vrbl 7 16.09 Fair CLR 31.1 17.2 31.7 24.4 43% 32 76.23 1013.7
01 09:53 SE 6 16.09 Fair CLR 30 17.2 46% 30 76.23 1013.8
01 08:53 SE 11 16.09 Fair CLR 29.4 16.7 46% 30 76.2 1013.3
01 07:53 Calm 16.09 Fair CLR 27.2 18.3 58% 28 76.2 1013.2
01 06:53 Calm 16.09 Fair CLR 25.6 19.4 69% 27 76.17 1013.1
01 05:53 Calm 16.09 Fair CLR 24.4 19.4 74% 25 76.15 1012.7
01 04:53 Calm 16.09 Fair CLR 25.6 18.3 27.2 25 64% 27 76.1 1012.1
01 03:53 Calm 16.09 Fair CLR 25.6 19.4 69% 27 76.1 1012.0
01 02:53 Calm 16.09 Fair CLR 25.6 18.3 64% 27 76.1 1012.2
01 01:53 Calm 16.09 Fair CLR 26.7 18.3 60% 28 76.12 1012.4
01 00:53 Calm 16.09 Fair CLR 27.2 17.8 57% 28 76.12 1012.5
31 23:53 E 6 16.09 Fair CLR 27.2 17.8 57% 28 76.1 1012.2
31 22:53 SE 6 16.09 Fair CLR 27.2 17.8 31.7 27.2 57% 28 76.07 1012.0
31 21:53 E 7 16.09 Fair CLR 28.3 16.7 49% 29 76.07 1012.0
31 20:53 SE 6 16.09 Fair CLR 28.3 17.8 53% 29 76.07 1011.7
31 19:53 S 6 16.09 Fair CLR 29.4 17.2 48% 30 76 1010.9
31 18:53 SW 7 16.09 Fair CLR 29.4 16.7 46% 30 75.97 1010.4
31 17:53 SE 6 16.09 Fair CLR 30.6 16.7 43% 31 75.97 1010.1
31 16:53 Vrbl 9 16.09 Fair CLR 31.1 17.2 31.1 25 43% 32 76 1010.7
Date Time (mst) Wind (kph) Vis. (km) Weather Sky Cond. Air Dwpt Max. Min. Relative Humidity Wind Chill (°C) Heat Index (°C) altimeter (cm) sea level (mb) 1 hr 3 hr 6 hr
6 hour
Temperature (ºC) Pressure Precipitation (cm)